createdAt,value
2023-05-02T00:01:28.876Z,47.02
2023-05-02T00:04:00.230Z,46.86
2023-05-02T00:06:33.093Z,46.93
2023-05-02T00:09:05.038Z,47.00
2023-05-02T00:11:36.741Z,46.74
2023-05-02T00:14:07.936Z,46.79
2023-05-02T00:16:39.440Z,46.88
2023-05-02T00:19:10.635Z,46.76
2023-05-02T00:21:42.144Z,46.45
2023-05-02T00:24:13.801Z,46.65
2023-05-02T00:26:45.416Z,46.46
2023-05-02T00:29:17.428Z,46.47
2023-05-02T00:31:48.939Z,46.67
2023-05-02T00:34:21.106Z,46.54
2023-05-02T00:36:52.941Z,46.42
2023-05-02T00:39:24.430Z,46.38
2023-05-02T00:42:00.870Z,46.31
2023-05-02T00:44:32.909Z,46.26
2023-05-02T00:47:05.049Z,46.38
2023-05-02T00:49:37.469Z,46.29
2023-05-02T00:52:09.540Z,46.24
2023-05-02T00:54:41.792Z,46.28
2023-05-02T00:57:14.292Z,45.81
2023-05-02T00:59:47.016Z,46.05
2023-05-02T01:02:32.274Z,46.08
2023-05-02T01:05:12.206Z,46.03
2023-05-02T01:07:59.862Z,46.02
2023-05-02T01:10:40.016Z,45.69
2023-05-02T01:13:15.461Z,45.74
2023-05-02T01:15:49.005Z,45.79
2023-05-02T01:18:23.887Z,45.72
2023-05-02T01:20:59.650Z,45.51
2023-05-02T01:23:37.636Z,45.49
2023-05-02T01:26:18.681Z,45.49
2023-05-02T01:29:02.138Z,45.37
2023-05-02T01:31:37.959Z,45.25
2023-05-02T01:34:12.212Z,45.19
2023-05-02T01:36:48.565Z,45.12
2023-05-02T01:39:24.087Z,45.22
2023-05-02T01:41:58.292Z,45.17
2023-05-02T01:44:31.774Z,44.99
2023-05-02T01:47:06.542Z,44.57
2023-05-02T01:49:39.864Z,44.57
2023-05-02T01:52:14.096Z,44.65
2023-05-02T01:54:46.390Z,44.66
2023-05-02T01:57:20.064Z,44.66
2023-05-02T01:59:53.305Z,44.57
2023-05-02T02:02:28.358Z,44.29
2023-05-02T02:05:01.261Z,44.46
2023-05-02T02:07:33.269Z,44.36
2023-05-02T02:10:05.192Z,44.46
2023-05-02T02:12:44.363Z,44.58
2023-05-02T02:15:27.389Z,44.24
2023-05-02T02:18:03.125Z,44.50
2023-05-02T02:20:36.454Z,44.17
2023-05-02T02:23:10.252Z,44.49
2023-05-02T02:25:42.309Z,44.35
2023-05-02T02:28:14.010Z,44.12
2023-05-02T02:30:45.716Z,44.10
2023-05-02T02:33:17.828Z,44.20
2023-05-02T02:35:55.602Z,44.16
2023-05-02T02:38:33.631Z,44.06
2023-05-02T02:41:14.103Z,44.08
2023-05-02T02:43:56.399Z,44.06
2023-05-02T02:46:36.482Z,44.16
2023-05-02T02:49:25.583Z,44.22
2023-05-02T02:52:04.475Z,44.33
2023-05-02T02:54:41.074Z,44.19
2023-05-02T02:57:20.342Z,44.28
2023-05-02T02:59:59.102Z,44.23
2023-05-02T03:02:34.063Z,44.48
2023-05-02T03:05:08.817Z,44.52
2023-05-02T03:07:40.108Z,44.50
2023-05-02T03:10:13.018Z,44.43
2023-05-02T03:12:44.829Z,44.59
2023-05-02T03:15:33.180Z,44.51
2023-05-02T03:18:05.012Z,44.53
2023-05-02T03:20:36.939Z,44.47
2023-05-02T03:23:09.057Z,44.54
2023-05-02T03:25:40.416Z,44.35
2023-05-02T03:28:14.209Z,44.42
2023-05-02T03:30:46.621Z,44.44
2023-05-02T03:33:18.156Z,44.51
2023-05-02T03:35:49.654Z,44.68
2023-05-02T03:38:21.194Z,44.71
2023-05-02T03:40:52.846Z,44.49
2023-05-02T03:43:24.240Z,44.67
2023-05-02T03:45:55.835Z,44.57
2023-05-02T03:48:28.180Z,44.64
2023-05-02T03:51:00.658Z,44.68
2023-05-02T03:53:32.890Z,44.58
2023-05-02T03:56:04.932Z,44.73
2023-05-02T03:58:41.584Z,44.68
2023-05-02T04:01:18.052Z,44.80
2023-05-02T04:03:53.461Z,44.62
2023-05-02T04:06:28.144Z,44.93
2023-05-02T04:09:03.145Z,44.72
2023-05-02T04:11:40.738Z,44.84
2023-05-02T04:14:13.114Z,44.91
2023-05-02T04:16:51.602Z,44.87
2023-05-02T04:19:30.609Z,44.91
2023-05-02T04:22:03.110Z,45.05
2023-05-02T04:24:37.527Z,44.90
2023-05-02T04:27:09.199Z,44.97
2023-05-02T04:29:40.871Z,44.93
2023-05-02T04:32:13.437Z,45.07
2023-05-02T04:34:45.198Z,45.07
2023-05-02T04:37:16.727Z,44.97
2023-05-02T04:39:49.437Z,45.19
2023-05-02T04:42:27.795Z,45.09
2023-05-02T04:45:14.043Z,45.23
2023-05-02T04:47:47.569Z,45.16
2023-05-02T04:50:19.366Z,44.87
2023-05-02T04:52:51.183Z,44.83
2023-05-02T04:55:23.132Z,44.76
2023-05-02T04:57:55.269Z,44.88
2023-05-02T05:00:27.166Z,44.82
2023-05-02T05:03:00.186Z,44.60
2023-05-02T05:05:33.162Z,44.78
2023-05-02T05:08:06.554Z,44.74
2023-05-02T05:10:41.167Z,44.49
2023-05-02T05:13:14.412Z,44.37
2023-05-02T05:15:49.077Z,44.37
2023-05-02T05:18:22.056Z,44.35
2023-05-02T05:20:53.440Z,44.34
2023-05-02T05:23:25.103Z,44.24
2023-05-02T05:25:56.415Z,44.25
2023-05-02T05:28:27.772Z,44.28
2023-05-02T05:30:59.126Z,44.32
2023-05-02T05:33:30.858Z,44.29
2023-05-02T05:36:09.053Z,43.94
2023-05-02T05:38:40.855Z,44.13
2023-05-02T05:41:13.534Z,44.04
2023-05-02T05:43:49.691Z,43.93
2023-05-02T05:46:20.936Z,43.83
2023-05-02T05:48:52.490Z,44.04
2023-05-02T05:51:25.003Z,43.72
2023-05-02T05:53:56.609Z,43.68
2023-05-02T05:56:28.381Z,43.85
2023-05-02T05:59:06.283Z,43.51
2023-05-02T06:01:38.465Z,43.61
2023-05-02T06:04:11.037Z,43.54
2023-05-02T06:06:45.907Z,43.41
2023-05-02T06:09:17.749Z,43.25
2023-05-02T06:11:49.099Z,43.28
2023-05-02T06:14:20.971Z,43.35
2023-05-02T06:16:54.330Z,43.20
2023-05-02T06:19:25.925Z,43.32
2023-05-02T06:21:57.203Z,43.30
2023-05-02T06:24:28.400Z,43.32
2023-05-02T06:27:00.374Z,43.50
2023-05-02T06:29:31.886Z,43.39
2023-05-02T06:32:04.245Z,43.43
2023-05-02T06:34:36.450Z,43.41
2023-05-02T06:37:08.081Z,43.46
2023-05-02T06:39:39.851Z,43.37
2023-05-02T06:42:11.396Z,43.35
2023-05-02T06:44:42.881Z,43.34
2023-05-02T06:47:14.440Z,43.31
2023-05-02T06:49:45.550Z,43.33
2023-05-02T06:52:17.415Z,43.27
2023-05-02T06:54:48.559Z,43.29
2023-05-02T06:57:20.157Z,43.18
2023-05-02T06:59:51.966Z,43.11
2023-05-02T07:02:23.567Z,43.12
2023-05-02T07:04:55.215Z,43.03
2023-05-02T07:07:26.878Z,43.00
2023-05-02T07:09:58.488Z,43.01
2023-05-02T07:12:30.092Z,43.07
2023-05-02T07:15:01.834Z,43.17
2023-05-02T07:17:33.529Z,42.94
2023-05-02T07:20:05.652Z,42.93
2023-05-02T07:22:37.460Z,43.04
2023-05-02T07:25:09.930Z,42.90
2023-05-02T07:27:41.520Z,42.56
2023-05-02T07:30:14.809Z,42.68
2023-05-02T07:32:46.413Z,42.48
2023-05-02T07:35:19.295Z,42.69
2023-05-02T07:37:50.552Z,42.50
2023-05-02T07:40:22.423Z,42.50
2023-05-02T07:42:53.611Z,42.43
2023-05-02T07:45:25.298Z,42.59
2023-05-02T07:47:56.813Z,42.66
2023-05-02T07:50:28.847Z,42.60
2023-05-02T07:53:00.630Z,42.63
2023-05-02T07:55:33.403Z,42.46
2023-05-02T07:58:04.769Z,42.59
2023-05-02T08:00:37.042Z,42.90
2023-05-02T08:03:09.162Z,42.74
2023-05-02T08:05:40.985Z,42.70
2023-05-02T08:08:12.140Z,42.74
2023-05-02T08:10:43.655Z,42.43
2023-05-02T08:13:15.793Z,42.53
2023-05-02T08:15:47.501Z,42.58
2023-05-02T08:18:19.063Z,42.38
2023-05-02T08:20:51.009Z,42.51
2023-05-02T08:23:22.039Z,42.40
2023-05-02T08:25:53.920Z,42.31
2023-05-02T08:28:25.636Z,42.19
2023-05-02T08:30:57.539Z,42.39
2023-05-02T08:33:32.062Z,42.13
2023-05-02T08:36:12.471Z,42.07
2023-05-02T08:38:44.073Z,42.10
2023-05-02T08:41:17.162Z,42.06
2023-05-02T08:43:48.958Z,42.21
2023-05-02T08:46:24.019Z,42.09
2023-05-02T08:48:59.285Z,42.32
2023-05-02T08:51:32.635Z,41.94
2023-05-02T08:54:05.697Z,41.92
2023-05-02T08:56:37.424Z,41.81
2023-05-02T08:59:09.688Z,41.55
2023-05-02T09:01:47.696Z,41.69
2023-05-02T09:04:22.497Z,41.40
2023-05-02T09:06:54.327Z,41.80
2023-05-02T09:09:26.102Z,41.70
2023-05-02T09:11:57.858Z,41.62
2023-05-02T09:14:29.268Z,41.35
2023-05-02T09:17:02.974Z,41.28
2023-05-02T09:19:34.317Z,41.19
2023-05-02T09:22:05.908Z,41.03
2023-05-02T09:24:39.478Z,40.95
2023-05-02T09:27:10.991Z,40.84
2023-05-02T09:29:46.162Z,40.79
2023-05-02T09:32:17.586Z,40.51
2023-05-02T09:35:08.339Z,40.37
2023-05-02T09:37:39.896Z,40.28
2023-05-02T09:40:13.201Z,40.18
2023-05-02T09:42:45.220Z,40.01
2023-05-02T09:45:25.289Z,39.79
2023-05-02T09:48:03.197Z,39.79
2023-05-02T09:50:39.169Z,39.45
2023-05-02T09:53:12.004Z,40.18
2023-05-02T09:55:43.719Z,39.96
2023-05-02T09:58:25.676Z,39.41
2023-05-02T10:00:57.049Z,39.20
2023-05-02T10:03:29.971Z,39.35
2023-05-02T10:06:02.453Z,39.15
2023-05-02T10:08:36.282Z,38.93
2023-05-02T10:11:10.839Z,38.97
2023-05-02T10:13:44.817Z,38.75
2023-05-02T10:16:25.242Z,38.69
2023-05-02T10:19:04.442Z,38.67
2023-05-02T10:21:38.218Z,38.53
2023-05-02T10:24:09.913Z,38.46
2023-05-02T10:26:42.264Z,38.44
2023-05-02T10:29:13.883Z,38.26
2023-05-02T10:31:46.646Z,38.09
2023-05-02T10:34:20.059Z,37.57
2023-05-02T10:36:51.783Z,37.73
2023-05-02T10:39:25.327Z,37.69
2023-05-02T10:41:59.355Z,37.50
2023-05-02T10:44:38.028Z,37.62
2023-05-02T10:47:23.617Z,37.37
2023-05-02T10:49:57.196Z,37.19
2023-05-02T10:52:34.460Z,37.12
2023-05-02T10:55:21.713Z,37.00
2023-05-02T10:58:19.774Z,36.80
2023-05-02T11:00:51.347Z,36.41
2023-05-02T11:03:49.607Z,36.41
2023-05-02T11:06:21.559Z,35.88
2023-05-02T11:08:53.329Z,36.12
2023-05-02T11:11:42.145Z,36.00
2023-05-02T11:14:14.509Z,35.98
2023-05-02T11:17:12.575Z,35.98
2023-05-02T11:20:10.510Z,35.96
2023-05-02T11:22:45.017Z,35.90
2023-05-02T11:25:33.468Z,35.78
2023-05-02T11:28:09.229Z,35.56
2023-05-02T11:30:48.829Z,35.64
2023-05-02T11:33:21.713Z,35.71
2023-05-02T11:35:52.952Z,35.70
2023-05-02T11:38:24.469Z,35.58
2023-05-02T11:41:00.935Z,35.65
2023-05-02T11:43:32.698Z,35.94
2023-05-02T11:46:05.495Z,35.63
2023-05-02T11:48:37.433Z,35.65
2023-05-02T11:51:09.038Z,35.49
2023-05-02T11:53:43.738Z,35.52
2023-05-02T11:56:15.160Z,35.37
2023-05-02T11:58:47.179Z,35.38
2023-05-02T12:01:19.037Z,35.40
2023-05-02T12:03:52.588Z,35.44
2023-05-02T12:06:24.743Z,35.60
2023-05-02T12:09:09.808Z,35.42
2023-05-02T12:11:41.362Z,35.45
2023-05-02T12:14:12.620Z,35.13
2023-05-02T12:16:44.784Z,35.26
2023-05-02T12:19:17.045Z,35.23
2023-05-02T12:21:48.654Z,35.16
2023-05-02T12:24:20.702Z,35.34
2023-05-02T12:27:09.760Z,35.01
2023-05-02T12:29:45.797Z,34.99
2023-05-02T12:32:28.222Z,35.02
2023-05-02T12:35:00.877Z,34.62
2023-05-02T12:37:32.769Z,34.91
2023-05-02T12:40:04.649Z,34.72
2023-05-02T12:42:36.267Z,34.74
2023-05-02T12:45:18.198Z,34.60
2023-05-02T12:47:49.579Z,34.29
2023-05-02T12:50:21.418Z,34.51
2023-05-02T12:52:57.706Z,34.08
2023-05-02T12:55:29.603Z,34.03
2023-05-02T12:58:05.924Z,33.61
2023-05-02T13:00:39.832Z,33.81
2023-05-02T13:03:11.868Z,33.84
2023-05-02T13:05:43.309Z,33.86
2023-05-02T13:08:14.914Z,33.75
2023-05-02T13:10:46.723Z,33.89
2023-05-02T13:13:18.256Z,33.66
2023-05-02T13:15:49.699Z,33.59
2023-05-02T13:18:20.854Z,33.53
2023-05-02T13:20:52.405Z,33.60
2023-05-02T13:23:23.375Z,33.69
2023-05-02T13:25:54.783Z,33.63
2023-05-02T13:28:25.964Z,33.75
2023-05-02T13:30:57.378Z,33.56
2023-05-02T13:33:28.669Z,33.52
2023-05-02T13:35:59.997Z,33.38
2023-05-02T13:38:31.409Z,33.36
2023-05-02T13:41:02.737Z,33.36
2023-05-02T13:43:34.152Z,33.56
2023-05-02T13:46:05.440Z,33.47
2023-05-02T13:48:37.442Z,33.37
2023-05-02T13:51:09.205Z,33.19
2023-05-02T13:53:40.456Z,32.85
2023-05-02T13:56:12.119Z,32.79
2023-05-02T13:58:43.606Z,32.68
2023-05-02T14:01:14.931Z,32.80
2023-05-02T14:03:46.860Z,32.52
2023-05-02T14:06:18.624Z,32.56
2023-05-02T14:08:51.359Z,32.29
2023-05-02T14:11:22.678Z,32.27
2023-05-02T14:13:54.118Z,32.21
2023-05-02T14:16:26.030Z,32.29
2023-05-02T14:18:57.581Z,32.17
2023-05-02T14:21:29.427Z,32.12
2023-05-02T14:24:01.548Z,31.98
2023-05-02T14:26:32.918Z,32.12
2023-05-02T14:29:04.153Z,32.06
2023-05-02T14:31:35.398Z,32.01
2023-05-02T14:34:08.828Z,31.88
2023-05-02T14:36:40.858Z,31.85
2023-05-02T14:39:12.638Z,31.83
2023-05-02T14:41:44.126Z,31.71
2023-05-02T14:44:15.314Z,31.56
2023-05-02T14:46:46.783Z,31.66
2023-05-02T14:49:18.490Z,31.52
2023-05-02T14:51:50.424Z,31.41
2023-05-02T14:54:23.081Z,31.32
2023-05-02T14:56:54.652Z,31.11
2023-05-02T14:59:29.237Z,31.08
2023-05-02T15:02:00.898Z,31.09
2023-05-02T15:04:33.512Z,31.11
2023-05-02T15:07:05.247Z,31.13
2023-05-02T15:09:36.682Z,31.22
2023-05-02T15:12:08.853Z,31.26
2023-05-02T15:14:40.684Z,31.10
2023-05-02T15:17:11.949Z,31.13
2023-05-02T15:19:43.316Z,31.23
2023-05-02T15:22:16.335Z,31.03
2023-05-02T15:24:47.671Z,31.12
2023-05-02T15:27:19.621Z,30.99
2023-05-02T15:29:51.072Z,31.08
2023-05-02T15:32:23.255Z,30.93
2023-05-02T15:34:55.283Z,30.97
2023-05-02T15:37:26.753Z,31.05
2023-05-02T15:39:58.380Z,31.06
2023-05-02T15:42:29.917Z,30.98
2023-05-02T15:45:01.169Z,31.01
2023-05-02T15:47:32.693Z,30.95
2023-05-02T15:50:05.196Z,30.90
2023-05-02T15:52:37.212Z,30.83
2023-05-02T15:55:10.031Z,30.87
2023-05-02T15:57:41.235Z,30.90
2023-05-02T16:00:17.040Z,31.07
2023-05-02T16:02:48.854Z,31.29
2023-05-02T16:05:20.194Z,31.09
2023-05-02T16:07:51.876Z,31.07
2023-05-02T16:10:23.824Z,31.13
2023-05-02T16:12:55.314Z,31.09
2023-05-02T16:15:27.701Z,30.90
2023-05-02T16:17:59.924Z,31.06
2023-05-02T16:20:32.705Z,31.02
2023-05-02T16:23:04.279Z,31.08
2023-05-02T16:25:35.514Z,30.89
2023-05-02T16:28:07.322Z,30.94
2023-05-02T16:30:40.059Z,30.79
2023-05-02T16:33:13.037Z,30.77
2023-05-02T16:35:44.826Z,30.76
2023-05-02T16:38:16.196Z,30.83
2023-05-02T16:40:47.602Z,30.69
2023-05-02T16:43:19.411Z,30.95
2023-05-02T16:46:00.697Z,31.05
2023-05-02T16:48:32.226Z,30.95
2023-05-02T16:51:04.540Z,31.02
2023-05-02T16:53:36.165Z,30.94
2023-05-02T16:56:08.952Z,30.68
2023-05-02T16:58:40.208Z,30.63
2023-05-02T17:01:11.657Z,30.71
2023-05-02T17:03:44.042Z,30.69
2023-05-02T17:06:15.865Z,30.76
2023-05-02T17:08:47.289Z,30.83
2023-05-02T17:11:18.788Z,30.94
2023-05-02T17:13:50.365Z,31.04
2023-05-02T17:16:22.195Z,31.00
2023-05-02T17:18:55.248Z,31.24
2023-05-02T17:21:27.903Z,31.20
2023-05-02T17:23:59.274Z,31.25
2023-05-02T17:26:30.617Z,31.31
2023-05-02T17:29:02.312Z,31.36
2023-05-02T17:31:33.854Z,31.65
2023-05-02T17:34:05.004Z,31.70
2023-05-02T17:36:36.719Z,31.59
2023-05-02T17:39:08.193Z,31.58
2023-05-02T17:41:40.142Z,31.85
2023-05-02T17:44:11.692Z,31.70
2023-05-02T17:46:43.467Z,31.75
2023-05-02T17:49:15.504Z,31.82
2023-05-02T17:51:46.814Z,32.24
2023-05-02T17:54:18.827Z,32.09
2023-05-02T17:56:50.786Z,32.39
2023-05-02T17:59:22.864Z,32.42
2023-05-02T18:01:54.651Z,32.76
2023-05-02T18:04:26.112Z,32.84
2023-05-02T18:06:57.760Z,33.01
2023-05-02T18:09:29.281Z,33.10
2023-05-02T18:12:04.511Z,33.21
2023-05-02T18:14:36.192Z,33.46
2023-05-02T18:17:09.814Z,33.67
2023-05-02T18:19:41.769Z,34.11
2023-05-02T18:22:14.234Z,34.60
2023-05-02T18:24:45.385Z,34.65
2023-05-02T18:27:17.775Z,34.74
2023-05-02T18:29:49.761Z,35.07
2023-05-02T18:32:21.641Z,34.99
2023-05-02T18:34:53.143Z,34.96
2023-05-02T18:37:31.213Z,34.91
2023-05-02T18:40:03.172Z,34.99
2023-05-02T18:42:35.276Z,35.08
2023-05-02T18:45:08.052Z,34.97
2023-05-02T18:47:39.419Z,34.90
2023-05-02T18:50:12.035Z,34.97
2023-05-02T18:52:43.288Z,34.92
2023-05-02T18:55:14.668Z,34.36
2023-05-02T18:57:47.917Z,34.43
2023-05-02T19:00:20.992Z,34.47
2023-05-02T19:02:54.530Z,34.48
2023-05-02T19:05:27.302Z,34.42
2023-05-02T19:07:58.447Z,34.49
2023-05-02T19:10:29.830Z,34.44
2023-05-02T19:13:01.153Z,34.46
2023-05-02T19:15:34.594Z,34.70
2023-05-02T19:18:06.330Z,34.80
2023-05-02T19:20:37.774Z,34.97
2023-05-02T19:23:19.814Z,34.92
2023-05-02T19:25:52.742Z,34.82
2023-05-02T19:28:23.889Z,34.87
2023-05-02T19:30:55.018Z,35.13
2023-05-02T19:33:26.659Z,34.84
2023-05-02T19:35:58.756Z,34.72
2023-05-02T19:38:30.319Z,34.71
2023-05-02T19:41:02.148Z,34.81
2023-05-02T19:43:35.769Z,34.87
2023-05-02T19:46:07.496Z,35.06
2023-05-02T19:48:40.044Z,35.04
2023-05-02T19:51:12.353Z,35.11
2023-05-02T19:53:43.733Z,34.94
2023-05-02T19:56:15.035Z,34.85
2023-05-02T19:58:46.534Z,34.99
2023-05-02T20:01:18.383Z,34.83
2023-05-02T20:03:53.026Z,34.80
2023-05-02T20:06:24.857Z,34.98
2023-05-02T20:08:56.024Z,35.07
2023-05-02T20:11:27.500Z,35.18
2023-05-02T20:13:59.043Z,35.18
2023-05-02T20:16:31.625Z,34.97
2023-05-02T20:19:04.398Z,35.27
2023-05-02T20:21:35.829Z,35.49
2023-05-02T20:24:09.053Z,35.53
2023-05-02T20:26:40.175Z,35.40
2023-05-02T20:29:11.608Z,35.27
2023-05-02T20:31:43.535Z,35.33
2023-05-02T20:34:16.160Z,35.41
2023-05-02T20:36:51.524Z,35.42
2023-05-02T20:39:23.096Z,35.47
2023-05-02T20:41:54.296Z,35.48
2023-05-02T20:44:26.516Z,35.51
2023-05-02T20:46:57.749Z,35.53
2023-05-02T20:49:31.499Z,35.66
2023-05-02T20:52:07.274Z,35.62
2023-05-02T20:54:38.803Z,35.59
2023-05-02T20:57:10.078Z,35.67
2023-05-02T20:59:41.870Z,35.63
2023-05-02T21:02:14.390Z,35.65
2023-05-02T21:04:46.059Z,35.86
2023-05-02T21:07:17.540Z,35.92
2023-05-02T21:09:49.068Z,35.93
2023-05-02T21:12:21.749Z,35.90
2023-05-02T21:14:53.760Z,35.85
2023-05-02T21:17:26.989Z,36.01
2023-05-02T21:19:58.233Z,36.03
2023-05-02T21:22:29.504Z,36.06
2023-05-02T21:25:00.545Z,36.17
2023-05-02T21:27:32.360Z,36.20
2023-05-02T21:30:04.114Z,36.25
2023-05-02T21:32:35.563Z,36.33
2023-05-02T21:35:08.454Z,36.40
2023-05-02T21:37:39.969Z,36.46
2023-05-02T21:40:14.645Z,36.49
2023-05-02T21:42:48.922Z,36.64
2023-05-02T21:45:21.635Z,36.67
2023-05-02T21:47:53.178Z,36.75
2023-05-02T21:50:25.077Z,36.85
2023-05-02T21:52:57.055Z,36.89
2023-05-02T21:55:28.464Z,37.08
2023-05-02T21:57:59.927Z,37.13
2023-05-02T22:00:32.135Z,37.17
2023-05-02T22:03:07.980Z,37.32
2023-05-02T22:05:41.339Z,37.57
2023-05-02T22:08:14.439Z,37.59
2023-05-02T22:10:46.077Z,37.76
2023-05-02T22:13:18.806Z,37.73
2023-05-02T22:15:51.213Z,37.83
2023-05-02T22:18:22.850Z,37.90
2023-05-02T22:20:54.293Z,38.01
2023-05-02T22:23:26.198Z,37.94
2023-05-02T22:25:57.622Z,38.17
2023-05-02T22:28:29.375Z,38.38
2023-05-02T22:31:01.626Z,38.48
2023-05-02T22:33:33.097Z,38.36
2023-05-02T22:36:05.407Z,38.33
2023-05-02T22:38:39.906Z,38.40
2023-05-02T22:41:11.318Z,38.57
2023-05-02T22:43:43.001Z,38.53
2023-05-02T22:46:14.563Z,38.57
2023-05-02T22:48:46.262Z,38.76
2023-05-02T22:51:18.032Z,38.77
2023-05-02T22:53:49.526Z,38.75
2023-05-02T22:56:20.923Z,38.83
2023-05-02T22:58:52.453Z,38.91
2023-05-02T23:01:24.283Z,38.99
2023-05-02T23:03:55.772Z,39.13
2023-05-02T23:06:28.850Z,39.26
2023-05-02T23:09:00.362Z,39.53
2023-05-02T23:11:32.832Z,39.61
2023-05-02T23:14:04.095Z,39.50
2023-05-02T23:16:35.939Z,39.73
2023-05-02T23:19:07.720Z,39.42
2023-05-02T23:21:39.558Z,39.44
2023-05-02T23:24:11.724Z,39.51
2023-05-02T23:26:43.888Z,39.61
2023-05-02T23:29:15.428Z,39.46
2023-05-02T23:31:47.610Z,39.67
2023-05-02T23:34:19.327Z,39.55
2023-05-02T23:36:52.561Z,39.58
2023-05-02T23:39:23.948Z,39.59
2023-05-02T23:41:55.271Z,39.66
2023-05-02T23:44:26.692Z,39.82
2023-05-02T23:46:58.255Z,39.58
2023-05-02T23:49:29.518Z,39.68
2023-05-02T23:52:03.005Z,39.65
2023-05-02T23:54:35.647Z,39.75
2023-05-02T23:57:08.289Z,39.59
2023-05-02T23:59:39.902Z,39.56
